createdAt,value
2016-08-21T00:00:09.902Z,993.27
2016-08-21T00:01:09.700Z,993.24
2016-08-21T00:02:09.685Z,993.24
2016-08-21T00:03:09.700Z,993.25
2016-08-21T00:04:09.687Z,993.24
2016-08-21T00:05:09.848Z,993.25
2016-08-21T00:06:09.704Z,993.26
2016-08-21T00:07:09.691Z,993.26
2016-08-21T00:08:09.705Z,993.25
2016-08-21T00:09:09.714Z,993.22
2016-08-21T00:10:09.933Z,993.25
2016-08-21T00:11:09.706Z,993.26
2016-08-21T00:12:09.694Z,993.25
2016-08-21T00:13:09.707Z,993.23
2016-08-21T00:14:09.766Z,993.21
2016-08-21T00:15:09.950Z,993.28
2016-08-21T00:16:09.709Z,993.25
2016-08-21T00:17:09.708Z,993.27
2016-08-21T00:18:09.723Z,993.24
2016-08-21T00:19:09.715Z,993.31
2016-08-21T00:20:09.935Z,993.33
2016-08-21T00:21:09.711Z,993.27
2016-08-21T00:22:09.711Z,993.34
2016-08-21T00:23:09.715Z,993.36
2016-08-21T00:24:09.716Z,993.35
2016-08-21T00:25:09.900Z,993.43
2016-08-21T00:26:09.715Z,993.47
2016-08-21T00:27:09.717Z,993.5
2016-08-21T00:28:09.721Z,993.48
2016-08-21T00:29:09.717Z,993.52
2016-08-21T00:30:09.894Z,993.49
2016-08-21T00:31:09.719Z,993.53
2016-08-21T00:32:09.716Z,993.55
2016-08-21T00:33:09.716Z,993.49
2016-08-21T00:34:09.719Z,993.54
2016-08-21T00:35:09.897Z,993.51
2016-08-21T00:36:09.723Z,993.5
2016-08-21T00:37:09.720Z,993.55
2016-08-21T00:38:09.721Z,993.53
2016-08-21T00:39:09.723Z,993.56
2016-08-21T00:40:09.958Z,993.63
2016-08-21T00:41:09.719Z,993.65
2016-08-21T00:42:09.723Z,993.68
2016-08-21T00:43:09.723Z,993.59
2016-08-21T00:44:09.725Z,993.61
2016-08-21T00:45:09.960Z,993.63
2016-08-21T00:46:09.742Z,993.62
2016-08-21T00:47:09.726Z,993.59
2016-08-21T00:48:09.727Z,993.59
2016-08-21T00:49:09.727Z,993.63
2016-08-21T00:50:09.957Z,993.65
2016-08-21T00:51:09.731Z,993.63
2016-08-21T00:52:09.728Z,993.6
2016-08-21T00:53:09.733Z,993.6
2016-08-21T00:54:09.730Z,993.57
2016-08-21T00:55:09.967Z,993.53
2016-08-21T00:56:09.744Z,993.56
2016-08-21T00:57:09.743Z,993.58
2016-08-21T00:58:09.735Z,993.58
2016-08-21T00:59:09.785Z,993.59
2016-08-21T01:00:09.938Z,993.59
2016-08-21T01:01:09.738Z,993.59
2016-08-21T01:02:09.749Z,993.58
2016-08-21T01:03:09.739Z,993.58
2016-08-21T01:04:09.740Z,993.56
2016-08-21T01:05:09.983Z,993.54
2016-08-21T01:06:09.743Z,993.56
2016-08-21T01:07:09.743Z,993.61
2016-08-21T01:08:09.744Z,993.58
2016-08-21T01:09:09.746Z,993.6
2016-08-21T01:10:09.958Z,993.57
2016-08-21T01:11:09.747Z,993.5
2016-08-21T01:12:09.749Z,993.54
2016-08-21T01:13:09.749Z,993.53
2016-08-21T01:14:09.751Z,993.57
2016-08-21T01:15:09.932Z,993.55
2016-08-21T01:16:09.753Z,993.57
2016-08-21T01:17:09.756Z,993.61
2016-08-21T01:18:09.755Z,993.63
2016-08-21T01:19:09.755Z,993.62
2016-08-21T01:20:09.964Z,993.67
2016-08-21T01:21:09.757Z,993.63
2016-08-21T01:22:09.758Z,993.62
2016-08-21T01:23:09.759Z,993.61
2016-08-21T01:24:09.759Z,993.62
2016-08-21T01:25:09.996Z,993.62
2016-08-21T01:26:09.761Z,993.62
2016-08-21T01:27:09.762Z,993.58
2016-08-21T01:28:09.763Z,993.58
2016-08-21T01:29:09.763Z,993.59
2016-08-21T01:30:09.939Z,993.56
2016-08-21T01:31:09.765Z,993.55
2016-08-21T01:32:09.766Z,993.52
2016-08-21T01:33:09.767Z,993.55
2016-08-21T01:34:09.768Z,993.59
2016-08-21T01:35:09.994Z,993.58
2016-08-21T01:36:09.769Z,993.6
2016-08-21T01:37:09.771Z,993.6
2016-08-21T01:38:09.773Z,993.6
2016-08-21T01:39:09.777Z,993.53
2016-08-21T01:40:10.000Z,993.53
2016-08-21T01:41:09.774Z,993.51
2016-08-21T01:42:09.775Z,993.57
2016-08-21T01:43:09.777Z,993.57
2016-08-21T01:44:09.776Z,993.51
2016-08-21T01:45:10.000Z,993.54
2016-08-21T01:46:09.779Z,993.56
2016-08-21T01:47:09.779Z,993.53
2016-08-21T01:48:09.780Z,993.48
2016-08-21T01:49:09.782Z,993.5
2016-08-21T01:50:10.000Z,993.52
2016-08-21T01:51:09.782Z,993.51
2016-08-21T01:52:09.782Z,993.53
2016-08-21T01:53:09.788Z,993.5
2016-08-21T01:54:09.787Z,993.5
2016-08-21T01:55:10.004Z,993.61
2016-08-21T01:56:09.803Z,993.62
2016-08-21T01:57:09.787Z,993.57
2016-08-21T01:58:09.785Z,993.59
2016-08-21T01:59:09.986Z,993.63
2016-08-21T02:00:10.004Z,993.58
2016-08-21T02:01:09.787Z,993.59
2016-08-21T02:02:09.787Z,993.52
2016-08-21T02:03:09.788Z,993.63
2016-08-21T02:04:09.790Z,993.49
2016-08-21T02:05:09.974Z,993.5
2016-08-21T02:06:09.791Z,993.5
2016-08-21T02:07:09.789Z,993.55
2016-08-21T02:08:09.801Z,993.56
2016-08-21T02:09:09.790Z,993.6
2016-08-21T02:10:10.013Z,993.63
2016-08-21T02:11:09.791Z,993.55
2016-08-21T02:12:09.790Z,993.61
2016-08-21T02:13:09.791Z,993.65
2016-08-21T02:14:09.790Z,993.65
2016-08-21T02:15:09.984Z,993.69
2016-08-21T02:16:09.791Z,993.63
2016-08-21T02:17:09.791Z,993.73
2016-08-21T02:18:09.793Z,993.66
2016-08-21T02:19:09.792Z,993.61
2016-08-21T02:20:10.019Z,993.66
2016-08-21T02:21:09.799Z,993.65
2016-08-21T02:22:09.793Z,993.64
2016-08-21T02:23:09.793Z,993.65
2016-08-21T02:24:09.793Z,993.64
2016-08-21T02:25:09.973Z,993.65
2016-08-21T02:26:09.795Z,993.69
2016-08-21T02:27:09.795Z,993.69
2016-08-21T02:28:09.795Z,993.69
2016-08-21T02:29:09.794Z,993.69
2016-08-21T02:30:09.984Z,993.64
2016-08-21T02:31:09.796Z,993.63
2016-08-21T02:32:09.797Z,993.6
2016-08-21T02:33:09.797Z,993.64
2016-08-21T02:34:09.799Z,993.6
2016-08-21T02:35:10.042Z,993.6
2016-08-21T02:36:09.798Z,993.57
2016-08-21T02:37:09.800Z,993.6
2016-08-21T02:38:09.801Z,993.57
2016-08-21T02:39:09.800Z,993.55
2016-08-21T02:40:10.049Z,993.55
2016-08-21T02:41:09.803Z,993.52
2016-08-21T02:42:09.801Z,993.58
2016-08-21T02:43:09.802Z,993.59
2016-08-21T02:44:09.802Z,993.55
2016-08-21T02:45:10.048Z,993.58
2016-08-21T02:46:09.804Z,993.6
2016-08-21T02:47:09.804Z,993.54
2016-08-21T02:48:09.806Z,993.52
2016-08-21T02:49:09.807Z,993.52
2016-08-21T02:50:10.029Z,993.58
2016-08-21T02:51:09.809Z,993.6
2016-08-21T02:52:09.809Z,993.57
2016-08-21T02:53:09.809Z,993.49
2016-08-21T02:54:09.809Z,993.52
2016-08-21T02:55:10.057Z,993.53
2016-08-21T02:56:09.811Z,993.51
2016-08-21T02:57:09.811Z,993.49
2016-08-21T02:58:09.813Z,993.49
2016-08-21T02:59:09.866Z,993.46
2016-08-21T03:00:10.021Z,993.49
2016-08-21T03:01:09.815Z,993.51
2016-08-21T03:02:09.816Z,993.48
2016-08-21T03:03:09.816Z,993.51
2016-08-21T03:04:09.816Z,993.49
2016-08-21T03:05:10.027Z,993.48
2016-08-21T03:06:09.818Z,993.51
2016-08-21T03:07:09.819Z,993.49
2016-08-21T03:08:09.819Z,993.53
2016-08-21T03:09:09.849Z,993.47
2016-08-21T03:10:10.052Z,993.47
2016-08-21T03:11:09.823Z,993.46
2016-08-21T03:12:09.821Z,993.46
2016-08-21T03:13:09.823Z,993.49
2016-08-21T03:14:09.831Z,993.46
2016-08-21T03:15:10.080Z,993.51
2016-08-21T03:16:09.826Z,993.52
2016-08-21T03:17:09.826Z,993.56
2016-08-21T03:18:09.827Z,993.6
2016-08-21T03:19:09.827Z,993.57
2016-08-21T03:20:10.069Z,993.54
2016-08-21T03:21:09.829Z,993.54
2016-08-21T03:22:09.830Z,993.54
2016-08-21T03:23:09.830Z,993.49
2016-08-21T03:24:09.831Z,993.54
2016-08-21T03:25:10.062Z,993.54
2016-08-21T03:26:09.836Z,993.59
2016-08-21T03:27:09.833Z,993.56
2016-08-21T03:28:09.835Z,993.55
2016-08-21T03:29:09.836Z,993.6
2016-08-21T03:30:10.071Z,993.51
2016-08-21T03:31:09.836Z,993.52
2016-08-21T03:32:09.838Z,993.52
2016-08-21T03:33:09.838Z,993.47
2016-08-21T03:34:09.839Z,993.54
2016-08-21T03:35:10.069Z,993.51
2016-08-21T03:36:09.840Z,993.47
2016-08-21T03:37:09.840Z,993.45
2016-08-21T03:38:09.842Z,993.47
2016-08-21T03:39:09.843Z,993.45
2016-08-21T03:40:10.078Z,993.5
2016-08-21T03:41:09.844Z,993.48
2016-08-21T03:42:09.846Z,993.54
2016-08-21T03:43:09.846Z,993.55
2016-08-21T03:44:09.847Z,993.59
2016-08-21T03:45:10.095Z,993.58
2016-08-21T03:46:09.850Z,993.56
2016-08-21T03:47:09.850Z,993.54
2016-08-21T03:48:09.850Z,993.5
2016-08-21T03:49:09.850Z,993.47
2016-08-21T03:50:10.050Z,993.42
2016-08-21T03:51:09.852Z,993.45
2016-08-21T03:52:09.854Z,993.46
2016-08-21T03:53:09.854Z,993.51
2016-08-21T03:54:09.854Z,993.52
2016-08-21T03:55:10.111Z,993.56
2016-08-21T03:56:09.855Z,993.54
2016-08-21T03:57:09.856Z,993.56
2016-08-21T03:58:09.857Z,993.56
2016-08-21T03:59:09.906Z,993.52
2016-08-21T04:00:10.080Z,993.55
2016-08-21T04:01:09.872Z,993.6
2016-08-21T04:02:09.858Z,993.64
2016-08-21T04:03:09.858Z,993.61
2016-08-21T04:04:09.860Z,993.62
2016-08-21T04:05:10.114Z,993.65
2016-08-21T04:06:09.861Z,993.62
2016-08-21T04:07:09.861Z,993.67
2016-08-21T04:08:09.861Z,993.57
2016-08-21T04:09:09.865Z,993.59
2016-08-21T04:10:10.088Z,993.54
2016-08-21T04:11:09.867Z,993.56
2016-08-21T04:12:09.863Z,993.53
2016-08-21T04:13:09.865Z,993.49
2016-08-21T04:14:09.862Z,993.47
2016-08-21T04:15:10.115Z,993.42
2016-08-21T04:16:09.864Z,993.41
2016-08-21T04:17:09.864Z,993.44
2016-08-21T04:18:09.864Z,993.45
2016-08-21T04:19:09.863Z,993.39
2016-08-21T04:20:10.103Z,993.43
2016-08-21T04:21:09.865Z,993.48
2016-08-21T04:22:09.864Z,993.48
2016-08-21T04:23:09.866Z,993.47
2016-08-21T04:24:09.863Z,993.59
2016-08-21T04:25:10.107Z,993.56
2016-08-21T04:26:09.864Z,993.55
2016-08-21T04:27:09.865Z,993.53
2016-08-21T04:28:09.864Z,993.53
2016-08-21T04:29:09.865Z,993.57
2016-08-21T04:30:10.099Z,993.58
2016-08-21T04:31:09.867Z,993.57
2016-08-21T04:32:09.866Z,993.57
2016-08-21T04:33:09.866Z,993.56
2016-08-21T04:34:09.869Z,993.53
2016-08-21T04:35:09.889Z,993.59
2016-08-21T04:36:09.866Z,993.61
2016-08-21T04:37:09.867Z,993.62
2016-08-21T04:38:09.870Z,993.62
2016-08-21T04:39:09.868Z,993.65
2016-08-21T04:40:10.100Z,993.59
2016-08-21T04:41:09.880Z,993.6
2016-08-21T04:42:09.868Z,993.58
2016-08-21T04:43:09.870Z,993.57
2016-08-21T04:44:09.869Z,993.58
2016-08-21T04:45:09.963Z,993.59
2016-08-21T04:46:09.870Z,993.58
2016-08-21T04:47:09.870Z,993.63
2016-08-21T04:48:09.869Z,993.62
2016-08-21T04:49:09.871Z,993.62
2016-08-21T04:50:10.094Z,993.63
2016-08-21T04:51:09.873Z,993.7
2016-08-21T04:52:09.871Z,993.74
2016-08-21T04:53:09.873Z,993.77
2016-08-21T04:54:09.874Z,993.8
2016-08-21T04:55:10.120Z,993.87
2016-08-21T04:56:09.872Z,993.84
2016-08-21T04:57:09.871Z,993.9
2016-08-21T04:58:09.872Z,993.92
2016-08-21T04:59:09.922Z,993.92
2016-08-21T05:00:10.107Z,993.93
2016-08-21T05:01:09.873Z,993.86
2016-08-21T05:02:09.873Z,993.84
2016-08-21T05:03:09.874Z,993.88
2016-08-21T05:04:09.875Z,993.94
2016-08-21T05:05:10.083Z,993.89
2016-08-21T05:06:09.878Z,993.83
2016-08-21T05:07:09.879Z,993.85
2016-08-21T05:08:09.879Z,993.82
2016-08-21T05:09:09.881Z,993.8
2016-08-21T05:10:10.112Z,993.81
2016-08-21T05:11:09.883Z,993.79
2016-08-21T05:12:09.885Z,993.82
2016-08-21T05:13:09.888Z,993.84
2016-08-21T05:14:09.891Z,993.84
2016-08-21T05:15:10.131Z,993.85
2016-08-21T05:16:09.893Z,993.91
2016-08-21T05:17:09.895Z,993.82
2016-08-21T05:18:09.899Z,993.87
2016-08-21T05:19:09.901Z,993.85
2016-08-21T05:20:10.107Z,993.84
2016-08-21T05:21:09.907Z,993.81
2016-08-21T05:22:09.910Z,993.8
2016-08-21T05:23:09.911Z,993.8
2016-08-21T05:24:09.914Z,993.81
2016-08-21T05:25:10.165Z,993.77
2016-08-21T05:26:09.920Z,993.7
2016-08-21T05:27:09.924Z,993.69
2016-08-21T05:28:09.927Z,993.69
2016-08-21T05:29:09.929Z,993.68
2016-08-21T05:30:10.165Z,993.63
2016-08-21T05:31:09.935Z,993.64
2016-08-21T05:32:09.938Z,993.67
2016-08-21T05:33:09.940Z,993.71
2016-08-21T05:34:09.943Z,993.7
2016-08-21T05:35:10.205Z,993.8
2016-08-21T05:36:09.948Z,993.83
2016-08-21T05:37:09.950Z,993.83
2016-08-21T05:38:09.953Z,993.68
2016-08-21T05:39:09.956Z,993.7
2016-08-21T05:40:10.207Z,993.76
2016-08-21T05:41:09.960Z,993.8
2016-08-21T05:42:09.961Z,993.84
2016-08-21T05:43:09.965Z,993.82
2016-08-21T05:44:09.967Z,993.79
2016-08-21T05:45:10.234Z,993.8
2016-08-21T05:46:09.972Z,993.83
2016-08-21T05:47:09.975Z,993.92
2016-08-21T05:48:09.976Z,993.85
2016-08-21T05:49:09.981Z,993.85
2016-08-21T05:50:10.308Z,993.78
2016-08-21T05:51:09.987Z,993.81
2016-08-21T05:52:09.988Z,993.79
2016-08-21T05:53:09.990Z,993.87
2016-08-21T05:54:09.992Z,993.88
2016-08-21T05:55:10.256Z,993.95
2016-08-21T05:56:09.997Z,993.93
2016-08-21T05:57:10.002Z,993.89
2016-08-21T05:58:10.003Z,993.87
2016-08-21T05:59:10.054Z,993.88
2016-08-21T06:00:10.260Z,993.83
2016-08-21T06:01:10.010Z,993.84
2016-08-21T06:02:10.013Z,993.83
2016-08-21T06:03:10.015Z,993.88
2016-08-21T06:04:10.018Z,993.92
2016-08-21T06:05:10.263Z,993.92
2016-08-21T06:06:10.025Z,993.91
2016-08-21T06:07:10.026Z,993.88
2016-08-21T06:08:10.028Z,993.87
2016-08-21T06:09:10.033Z,993.85
2016-08-21T06:10:10.286Z,993.86
2016-08-21T06:11:10.036Z,993.84
2016-08-21T06:12:10.038Z,993.84
2016-08-21T06:13:10.051Z,993.88
2016-08-21T06:14:10.043Z,994.02
2016-08-21T06:15:10.286Z,993.97
2016-08-21T06:16:10.057Z,993.99
2016-08-21T06:17:10.056Z,993.95
2016-08-21T06:18:10.060Z,993.98
2016-08-21T06:19:10.059Z,993.94
2016-08-21T06:20:10.376Z,993.98
2016-08-21T06:21:10.062Z,993.97
2016-08-21T06:22:10.063Z,993.95
2016-08-21T06:23:10.066Z,994.02
2016-08-21T06:24:10.069Z,994.04
2016-08-21T06:25:10.223Z,994.03
2016-08-21T06:26:10.078Z,994.01
2016-08-21T06:27:10.078Z,994.07
2016-08-21T06:28:10.082Z,994.12
2016-08-21T06:29:10.083Z,994.06
2016-08-21T06:30:10.353Z,994
2016-08-21T06:31:10.090Z,994.02
2016-08-21T06:32:10.092Z,993.99
2016-08-21T06:33:10.098Z,994.04
2016-08-21T06:34:10.102Z,993.94
2016-08-21T06:35:10.332Z,993.94
2016-08-21T06:36:10.111Z,993.97
2016-08-21T06:37:10.116Z,994
2016-08-21T06:38:10.126Z,993.94
2016-08-21T06:39:10.128Z,993.93
2016-08-21T06:40:10.348Z,993.97
2016-08-21T06:41:10.137Z,994.01
2016-08-21T06:42:10.138Z,993.98
2016-08-21T06:43:10.143Z,993.96
2016-08-21T06:44:10.148Z,993.99
2016-08-21T06:45:10.371Z,993.95
2016-08-21T06:46:10.156Z,993.95
2016-08-21T06:47:10.160Z,993.92
2016-08-21T06:48:10.164Z,993.98
2016-08-21T06:49:10.167Z,993.99
2016-08-21T06:50:10.455Z,993.98
2016-08-21T06:51:10.173Z,993.99
2016-08-21T06:52:10.176Z,993.97
2016-08-21T06:53:10.182Z,993.98
2016-08-21T06:54:10.183Z,993.95
2016-08-21T06:55:10.333Z,994.01
2016-08-21T06:56:10.190Z,993.99
2016-08-21T06:57:10.194Z,993.98
2016-08-21T06:58:10.196Z,994.04
2016-08-21T06:59:10.254Z,994.05
2016-08-21T07:00:10.441Z,994.02
2016-08-21T07:01:10.205Z,994.03
2016-08-21T07:02:10.214Z,994.06
2016-08-21T07:03:10.212Z,994.1
2016-08-21T07:04:10.214Z,994.12
2016-08-21T07:05:10.383Z,994.08
2016-08-21T07:06:10.221Z,994.08
2016-08-21T07:07:10.225Z,994.08
2016-08-21T07:08:10.227Z,994.08
2016-08-21T07:09:10.229Z,994.04
2016-08-21T07:10:10.487Z,994.06
2016-08-21T07:11:10.238Z,993.99
2016-08-21T07:12:10.237Z,994.01
2016-08-21T07:13:10.241Z,994.04
2016-08-21T07:14:10.244Z,994.06
2016-08-21T07:15:10.435Z,994.12
2016-08-21T07:16:10.250Z,994.08
2016-08-21T07:17:10.253Z,994.09
2016-08-21T07:18:10.255Z,994.14
2016-08-21T07:19:10.259Z,994.13
2016-08-21T07:20:10.517Z,994.08
2016-08-21T07:21:10.274Z,994.1
2016-08-21T07:22:10.276Z,994.1
2016-08-21T07:23:10.275Z,994.15
2016-08-21T07:24:10.278Z,994.18
2016-08-21T07:25:10.549Z,994.21
2016-08-21T07:26:10.280Z,994.15
2016-08-21T07:27:10.284Z,994.17
2016-08-21T07:28:10.297Z,994.14
2016-08-21T07:29:10.294Z,994.13
2016-08-21T07:30:10.491Z,994.1
2016-08-21T07:31:10.301Z,994.07
2016-08-21T07:32:10.306Z,994.03
2016-08-21T07:33:10.310Z,994.03
2016-08-21T07:34:10.316Z,994.01
2016-08-21T07:35:10.584Z,994.01
2016-08-21T07:36:10.326Z,993.99
2016-08-21T07:37:10.329Z,993.96
2016-08-21T07:38:10.333Z,994
2016-08-21T07:39:10.338Z,994.08
2016-08-21T07:40:10.587Z,994.09
2016-08-21T07:41:10.349Z,994.02
2016-08-21T07:42:10.353Z,994.08
2016-08-21T07:43:10.356Z,994.02
2016-08-21T07:44:10.359Z,994.08
2016-08-21T07:45:10.630Z,994.08
2016-08-21T07:46:10.373Z,994.08
2016-08-21T07:47:10.371Z,994.14
2016-08-21T07:48:10.377Z,994.11
2016-08-21T07:49:10.378Z,994.15
2016-08-21T07:50:10.643Z,994.18
2016-08-21T07:51:10.401Z,994.19
2016-08-21T07:52:10.393Z,994.19
2016-08-21T07:53:10.397Z,994.11
2016-08-21T07:54:10.402Z,994.15
2016-08-21T07:55:10.735Z,994.16
2016-08-21T07:56:10.411Z,994.18
2016-08-21T07:57:10.423Z,994.15
2016-08-21T07:58:10.422Z,994.14
2016-08-21T07:59:10.479Z,994.18
2016-08-21T08:00:10.677Z,994.18
2016-08-21T08:01:10.440Z,994.16
2016-08-21T08:02:10.451Z,994.16
2016-08-21T08:03:10.452Z,994.15
2016-08-21T08:04:10.462Z,994.15
2016-08-21T08:05:10.708Z,994.15
2016-08-21T08:06:10.472Z,994.14
2016-08-21T08:07:10.495Z,994.11
2016-08-21T08:08:10.487Z,994.1
2016-08-21T08:09:10.489Z,994.08
2016-08-21T08:10:10.548Z,994.01
2016-08-21T08:11:10.502Z,994.08
2016-08-21T08:12:10.509Z,994.15
2016-08-21T08:13:10.515Z,994.14
2016-08-21T08:14:10.526Z,994.13
2016-08-21T08:15:10.785Z,994.12
2016-08-21T08:16:10.536Z,994.16
2016-08-21T08:17:10.548Z,994.17
2016-08-21T08:18:10.551Z,994.08
2016-08-21T08:19:10.557Z,994.14
2016-08-21T08:20:10.690Z,994.15
2016-08-21T08:21:10.569Z,994.11
2016-08-21T08:22:10.576Z,994.12
2016-08-21T08:23:10.582Z,994.04
2016-08-21T08:24:10.589Z,994.07
2016-08-21T08:25:10.595Z,994.07
2016-08-21T08:26:10.602Z,994.06
2016-08-21T08:27:10.610Z,994.08
2016-08-21T08:28:10.618Z,994.02
2016-08-21T08:29:10.624Z,994.04
2016-08-21T08:30:10.632Z,994.07
2016-08-21T08:31:10.641Z,994.08
2016-08-21T08:32:10.644Z,994.09
2016-08-21T08:33:10.651Z,994.08
2016-08-21T08:34:10.658Z,994.04
2016-08-21T08:35:10.667Z,994.02
2016-08-21T08:36:10.675Z,994.05
2016-08-21T08:37:10.680Z,994.06
2016-08-21T08:38:10.686Z,994.08
2016-08-21T08:39:10.706Z,994.05
2016-08-21T08:40:10.700Z,994.14
2016-08-21T08:41:10.708Z,994.09
2016-08-21T08:42:10.715Z,994.02
2016-08-21T08:43:10.723Z,993.98
2016-08-21T08:44:10.729Z,994.05
2016-08-21T08:45:10.740Z,994.13
2016-08-21T08:46:10.753Z,994.22
2016-08-21T08:47:10.753Z,994.12
2016-08-21T08:48:10.761Z,994.12
2016-08-21T08:49:10.765Z,994.09
2016-08-21T08:50:10.772Z,994.16
2016-08-21T08:51:10.779Z,994.08
2016-08-21T08:52:10.784Z,994.08
2016-08-21T08:53:10.791Z,994.1
2016-08-21T08:54:10.797Z,994.13
2016-08-21T08:55:10.805Z,994.06
2016-08-21T08:56:10.810Z,994.05
2016-08-21T08:57:10.815Z,994.03
2016-08-21T08:58:10.820Z,994.04
2016-08-21T08:59:10.874Z,994.03
2016-08-21T09:00:10.831Z,993.99
2016-08-21T09:01:10.839Z,994.01
2016-08-21T09:02:10.842Z,994.01
2016-08-21T09:03:10.847Z,994.08
2016-08-21T09:04:10.853Z,994.15
2016-08-21T09:05:10.857Z,994.17
2016-08-21T09:06:10.861Z,994.23
2016-08-21T09:07:10.868Z,994.28
2016-08-21T09:08:10.871Z,994.24
2016-08-21T09:09:10.880Z,994.29
2016-08-21T09:10:11.014Z,994.23
2016-08-21T09:11:10.887Z,994.18
2016-08-21T09:12:10.891Z,994.22
2016-08-21T09:13:10.896Z,994.25
2016-08-21T09:14:10.901Z,994.25
2016-08-21T09:15:10.905Z,994.28
2016-08-21T09:16:10.911Z,994.21
2016-08-21T09:17:10.914Z,994.39
2016-08-21T09:18:10.921Z,994.43
2016-08-21T09:19:10.926Z,994.3
2016-08-21T09:20:10.927Z,994.27
2016-08-21T09:21:10.933Z,994.3
2016-08-21T09:22:10.937Z,994.41
2016-08-21T09:23:10.943Z,994.3
2016-08-21T09:24:10.946Z,994.4
2016-08-21T09:25:10.951Z,994.42
2016-08-21T09:26:10.956Z,994.44
2016-08-21T09:27:10.961Z,994.42
2016-08-21T09:28:10.965Z,994.43
2016-08-21T09:29:10.969Z,994.41
2016-08-21T09:30:10.974Z,994.48
2016-08-21T09:31:10.978Z,994.52
2016-08-21T09:32:10.983Z,994.43
2016-08-21T09:33:11.233Z,994.36
2016-08-21T09:34:10.993Z,994.33
2016-08-21T09:35:10.996Z,994.32
2016-08-21T09:36:11.012Z,994.37
2016-08-21T09:37:11.005Z,994.35
2016-08-21T09:38:11.010Z,994.29
2016-08-21T09:39:11.015Z,994.33
2016-08-21T09:40:11.279Z,994.38
2016-08-21T09:41:11.023Z,994.26
2016-08-21T09:42:11.025Z,994.27
2016-08-21T09:43:11.030Z,994.24
2016-08-21T09:44:11.034Z,994.22
2016-08-21T09:45:11.060Z,994.22
2016-08-21T09:46:11.043Z,994.19
2016-08-21T09:47:11.047Z,994.27
2016-08-21T09:48:11.051Z,994.34
2016-08-21T09:49:11.055Z,994.28
2016-08-21T09:50:11.059Z,994.23
2016-08-21T09:51:11.066Z,994.24
2016-08-21T09:52:11.066Z,994.2
2016-08-21T09:53:11.069Z,994.19
2016-08-21T09:54:11.074Z,994.26
2016-08-21T09:55:11.076Z,994.2
2016-08-21T09:56:11.084Z,994.26
2016-08-21T09:57:11.084Z,994.24
2016-08-21T09:58:11.089Z,994.33
2016-08-21T09:59:11.242Z,994.28
2016-08-21T10:00:11.094Z,994.27
2016-08-21T10:01:11.098Z,994.25
2016-08-21T10:02:11.102Z,994.23
2016-08-21T10:03:11.106Z,994.25
2016-08-21T10:04:11.108Z,994.22
2016-08-21T10:05:11.114Z,994.2
2016-08-21T10:06:11.116Z,994.18
2016-08-21T10:07:11.121Z,994.18
2016-08-21T10:08:11.123Z,994.19
2016-08-21T10:09:11.129Z,994.21
2016-08-21T10:10:11.131Z,994.2
2016-08-21T10:11:11.135Z,994.19
2016-08-21T10:12:11.139Z,994.18
2016-08-21T10:13:11.142Z,994.15
2016-08-21T10:14:11.146Z,994.13
2016-08-21T10:15:11.149Z,994.15
2016-08-21T10:16:11.152Z,994.07
2016-08-21T10:17:11.157Z,993.98
2016-08-21T10:18:11.161Z,994.03
2016-08-21T10:19:11.164Z,994.14
2016-08-21T10:20:11.170Z,994.13
2016-08-21T10:21:11.177Z,994.11
2016-08-21T10:22:11.180Z,994.06
2016-08-21T10:23:11.183Z,994.02
2016-08-21T10:24:11.185Z,994.01
2016-08-21T10:25:11.194Z,994.03
2016-08-21T10:26:11.207Z,994.06
2016-08-21T10:27:11.196Z,994.14
2016-08-21T10:28:11.197Z,994.07
2016-08-21T10:29:11.202Z,994.04
2016-08-21T10:30:11.204Z,994.14
2016-08-21T10:31:11.209Z,994.09
2016-08-21T10:32:11.212Z,994.11
2016-08-21T10:33:11.215Z,994.03
2016-08-21T10:34:11.220Z,994
2016-08-21T10:35:11.223Z,994.08
2016-08-21T10:36:11.227Z,993.99
2016-08-21T10:37:11.229Z,993.99
2016-08-21T10:38:11.234Z,994.03
2016-08-21T10:39:11.244Z,994.07
2016-08-21T10:40:11.249Z,994.06
2016-08-21T10:41:11.251Z,994.05
2016-08-21T10:42:11.253Z,994.08
2016-08-21T10:43:11.252Z,994.04
2016-08-21T10:44:11.254Z,993.96
2016-08-21T10:45:11.259Z,994.03
2016-08-21T10:46:11.262Z,993.9
2016-08-21T10:47:11.271Z,993.91
2016-08-21T10:48:11.269Z,993.91
2016-08-21T10:49:11.273Z,993.93
2016-08-21T10:50:11.279Z,993.95
2016-08-21T10:51:11.283Z,994.01
2016-08-21T10:52:11.285Z,994.05
2016-08-21T10:53:11.288Z,994.11
2016-08-21T10:54:11.292Z,994.02
2016-08-21T10:55:11.296Z,994.03
2016-08-21T10:56:11.300Z,994.16
2016-08-21T10:57:11.313Z,994.12
2016-08-21T10:58:11.313Z,994.02
2016-08-21T10:59:11.361Z,994.07
2016-08-21T11:00:11.321Z,994.05
2016-08-21T11:01:11.318Z,994.04
2016-08-21T11:02:11.323Z,994.04
2016-08-21T11:03:11.325Z,994.04
2016-08-21T11:04:11.334Z,994.01
2016-08-21T11:05:11.334Z,994.03
2016-08-21T11:06:11.336Z,994.09
2016-08-21T11:07:11.344Z,994.06
2016-08-21T11:08:11.346Z,994.09
2016-08-21T11:09:11.349Z,994.16
2016-08-21T11:10:11.352Z,994.19
2016-08-21T11:11:11.357Z,994.17
2016-08-21T11:12:11.364Z,994.25
2016-08-21T11:13:11.365Z,994.29
2016-08-21T11:14:11.367Z,994.34
2016-08-21T11:15:11.384Z,994.29
2016-08-21T11:16:11.378Z,994.4
2016-08-21T11:17:11.379Z,994.42
2016-08-21T11:18:11.384Z,994.44
2016-08-21T11:19:11.389Z,994.46
2016-08-21T11:20:11.392Z,994.45
2016-08-21T11:21:11.399Z,994.46
2016-08-21T11:22:11.403Z,994.45
2016-08-21T11:23:11.405Z,994.34
2016-08-21T11:24:11.410Z,994.39
2016-08-21T11:25:11.414Z,994.34
2016-08-21T11:26:11.418Z,994.28
2016-08-21T11:27:11.423Z,994.36
2016-08-21T11:28:11.430Z,994.35
2016-08-21T11:29:11.431Z,994.43
2016-08-21T11:30:11.436Z,994.42
2016-08-21T11:31:11.442Z,994.5
2016-08-21T11:32:11.443Z,994.41
2016-08-21T11:33:11.451Z,994.44
2016-08-21T11:34:11.452Z,994.49
2016-08-21T11:35:11.457Z,994.4
2016-08-21T11:36:11.461Z,994.47
2016-08-21T11:37:11.465Z,994.44
2016-08-21T11:38:11.471Z,994.45
2016-08-21T11:39:11.473Z,994.39
2016-08-21T11:40:11.478Z,994.49
2016-08-21T11:41:11.495Z,994.36
2016-08-21T11:42:11.495Z,994.47
2016-08-21T11:43:11.497Z,994.48
2016-08-21T11:44:11.497Z,994.59
2016-08-21T11:45:11.505Z,994.42
2016-08-21T11:46:11.503Z,994.5
2016-08-21T11:47:11.507Z,994.55
2016-08-21T11:48:11.519Z,994.62
2016-08-21T11:49:11.516Z,994.57
2016-08-21T11:50:11.519Z,994.64
2016-08-21T11:51:11.524Z,994.59
2016-08-21T11:52:11.529Z,994.6
2016-08-21T11:53:11.537Z,994.57
2016-08-21T11:54:11.535Z,994.64
2016-08-21T11:55:11.540Z,994.68
2016-08-21T11:56:11.543Z,994.74
2016-08-21T11:57:11.559Z,994.81
2016-08-21T11:58:11.563Z,994.77
2016-08-21T11:59:11.614Z,994.76
2016-08-21T12:00:11.563Z,994.72
2016-08-21T12:01:11.564Z,994.75
2016-08-21T12:02:11.568Z,994.61
2016-08-21T12:03:11.573Z,994.63
2016-08-21T12:04:11.578Z,994.7
2016-08-21T12:05:11.581Z,994.7
2016-08-21T12:06:11.587Z,994.73
2016-08-21T12:07:11.590Z,994.73
2016-08-21T12:08:11.592Z,994.75
2016-08-21T12:09:11.598Z,994.71
2016-08-21T12:10:11.603Z,994.6
2016-08-21T12:11:11.608Z,994.56
2016-08-21T12:12:11.612Z,994.52
2016-08-21T12:13:11.614Z,994.53
2016-08-21T12:14:11.622Z,994.57
2016-08-21T12:15:11.625Z,994.61
2016-08-21T12:16:11.634Z,994.57
2016-08-21T12:17:11.644Z,994.53
2016-08-21T12:18:11.638Z,994.56
2016-08-21T12:19:11.642Z,994.54
2016-08-21T12:20:11.648Z,994.49
2016-08-21T12:21:11.650Z,994.53
2016-08-21T12:22:11.655Z,994.52
2016-08-21T12:23:11.658Z,994.49
2016-08-21T12:24:11.663Z,994.51
2016-08-21T12:25:11.667Z,994.56
2016-08-21T12:26:11.671Z,994.52
2016-08-21T12:27:11.677Z,994.48
2016-08-21T12:28:11.680Z,994.56
2016-08-21T12:29:11.706Z,994.68
2016-08-21T12:30:11.689Z,994.6